KDSV

Details ICAO KDSV
Name DANSVILLE MUNI
Region United States
Timezone America/New_York (UTC-5.0)
Plans Departing 0
Arriving 3
Stats Elevation 662 ft / 202 m (AMSL)
Location 42.570745° -77.712933°
Runways 2
Magnetic Variation 11.268° W
Sunrise 2017-12-14 12:34:36 UTC / 2017-12-14 07:34:36 Local
Sunset 2017-12-14 21:39:28 UTC / 2017-12-14 16:39:28 Local
Advertisement - Login to hide

Runways

ID Width Length Bearing (true) Bearing (mag) Surface Threshold Offset Overrun Length
14 100 ft / 30 m 3,357 ft / 1,023 m 128.22° 139.49° Asphalt 0 ft / 0 m 0 ft / 0 m
18 100 ft / 30 m 2,442 ft / 744 m 169.41° 180.68° Asphalt 168 ft / 51 m 0 ft / 0 m
32 100 ft / 30 m 3,357 ft / 1,023 m 308.23° 319.50° Asphalt 0 ft / 0 m 0 ft / 0 m
36 100 ft / 30 m 2,442 ft / 744 m 349.42° 0.69° Asphalt 0 ft / 0 m 0 ft / 0 m

Map

Weather


0- 5 10 15 20 25 30 35+ Temperature / ° C

Clouds and Precipitation
Forecast for 2017-12-14 12:00 UTC. Updated an hour ago

Ground ~20,000 ft ~40,000 ft Winds

METAR

KDSV 141021Z AUTO 33008KT 4SM -SN BR BKN024 OVC033 M09/M11 A2961 RMK AO2 PRESRR P0000 T10891111

TAF

Not found

Frequencies

Recorded 118.32 MHz ASOS
Approach 123.70 MHz ROCHESTER APP/DEP
Unicom 123.00 MHz CTAF/UNICOM
Warning: Do not use this data for real-world aviation or navigation. No guarantee of current accuracy is given.